createdAt,value
2022-08-10T00:01:40.241Z,98456.84
2022-08-10T00:04:08.189Z,98451.94
2022-08-10T00:06:36.901Z,98461.31
2022-08-10T00:09:05.133Z,98455.50
2022-08-10T00:11:32.928Z,98456.19
2022-08-10T00:14:00.812Z,98461.78
2022-08-10T00:16:30.045Z,98454.44
2022-08-10T00:18:57.921Z,98450.50
2022-08-10T00:21:27.077Z,98446.44
2022-08-10T00:23:55.138Z,98443.72
2022-08-10T00:26:22.922Z,98444.69
2022-08-10T00:28:50.744Z,98443.84
2022-08-10T00:31:18.548Z,98446.94
2022-08-10T00:33:47.703Z,98444.16
2022-08-10T00:36:15.514Z,98444.50
2022-08-10T00:38:43.352Z,98440.41
2022-08-10T00:41:11.129Z,98441.63
2022-08-10T00:43:38.921Z,98440.13
2022-08-10T00:46:06.838Z,98434.69
2022-08-10T00:48:34.623Z,98431.44
2022-08-10T00:51:03.780Z,98438.22
2022-08-10T00:53:31.772Z,98437.38
2022-08-10T00:57:10.068Z,98436.13
2022-08-10T00:58:48.161Z,98428.19
2022-08-10T01:02:08.468Z,98424.78
2022-08-10T01:04:39.727Z,98429.69
2022-08-10T01:07:02.703Z,98426.81
2022-08-10T01:09:32.218Z,98421.56
2022-08-10T01:12:37.772Z,98418.16
2022-08-10T01:14:53.002Z,98425.06
2022-08-10T01:17:23.240Z,98421.84
2022-08-10T01:20:30.486Z,98418.44
2022-08-10T01:23:30.164Z,98424.56
2022-08-10T01:26:30.762Z,98419.75
2022-08-10T01:29:19.312Z,98419.44
2022-08-10T01:31:52.167Z,98414.69
2022-08-10T01:34:21.776Z,98408.00
2022-08-10T01:36:51.455Z,98408.69
2022-08-10T01:39:21.398Z,98408.16
2022-08-10T01:41:49.314Z,98402.88
2022-08-10T01:44:19.947Z,98408.16
2022-08-10T01:46:56.757Z,98409.16
2022-08-10T01:49:23.888Z,98416.53
2022-08-10T01:51:52.729Z,98411.41
2022-08-10T01:54:22.340Z,98409.00
2022-08-10T01:56:53.590Z,98412.09
2022-08-10T01:59:24.927Z,98405.09
2022-08-10T02:01:56.745Z,98403.84
2022-08-10T02:04:25.193Z,98411.63
2022-08-10T02:06:54.010Z,98416.38
2022-08-10T02:09:23.736Z,98412.97
2022-08-10T02:12:07.735Z,98404.19
2022-08-10T02:14:37.499Z,98408.72
2022-08-10T02:17:08.943Z,98402.44
2022-08-10T02:19:58.050Z,98406.47
2022-08-10T02:22:38.423Z,98408.38
2022-08-10T02:25:07.902Z,98408.66
2022-08-10T02:27:35.960Z,98410.50
2022-08-10T02:30:05.513Z,98411.75
2022-08-10T02:32:37.730Z,98410.81
2022-08-10T02:35:08.736Z,98411.97
2022-08-10T02:37:50.528Z,98419.44
2022-08-10T02:45:13.778Z,98424.00
2022-08-10T02:45:21.241Z,98424.16
2022-08-10T02:46:01.143Z,98417.34
2022-08-10T02:48:34.548Z,98417.34
2022-08-10T02:51:03.730Z,98419.34
2022-08-10T02:53:55.124Z,98426.97
2022-08-10T02:56:23.338Z,98418.19
2022-08-10T02:58:54.621Z,98412.25
2022-08-10T03:01:24.512Z,98412.47
2022-08-10T03:03:57.246Z,98417.03
2022-08-10T03:06:26.486Z,98413.06
2022-08-10T03:08:54.265Z,98418.50
2022-08-10T03:12:36.254Z,98406.13
2022-08-10T03:14:12.145Z,98409.94
2022-08-10T03:16:39.922Z,98407.09
2022-08-10T03:20:33.864Z,98407.28
2022-08-10T03:21:57.440Z,98408.44
2022-08-10T03:24:32.680Z,98405.44
2022-08-10T03:27:01.108Z,98405.53
2022-08-10T03:29:28.947Z,98408.78
2022-08-10T03:31:56.729Z,98407.09
2022-08-10T03:34:33.346Z,98410.31
2022-08-10T03:37:01.776Z,98404.53
2022-08-10T03:39:29.702Z,98397.09
2022-08-10T03:41:59.890Z,98404.22
2022-08-10T03:44:29.863Z,98399.94
2022-08-10T03:46:57.799Z,98401.31
2022-08-10T03:49:27.063Z,98393.69
2022-08-10T03:51:55.001Z,98402.44
2022-08-10T03:54:24.486Z,98396.13
2022-08-10T03:56:52.293Z,98392.06
2022-08-10T03:59:20.108Z,98390.69
2022-08-10T04:02:44.992Z,98394.41
2022-08-10T04:04:38.258Z,98399.44
2022-08-10T04:07:06.299Z,98398.81
2022-08-10T04:09:54.499Z,98395.56
2022-08-10T04:12:23.538Z,98398.44
2022-08-10T04:14:53.338Z,98398.81
2022-08-10T04:18:04.194Z,98400.28
2022-08-10T04:20:15.230Z,98399.59
2022-08-10T04:22:43.029Z,98398.59
2022-08-10T04:25:10.854Z,98404.56
2022-08-10T04:27:38.645Z,98404.69
2022-08-10T04:30:07.576Z,98403.53
2022-08-10T04:32:35.496Z,98403.47
2022-08-10T04:35:03.498Z,98404.00
2022-08-10T04:37:32.689Z,98403.69
2022-08-10T04:40:01.406Z,98396.78
2022-08-10T04:42:31.163Z,98400.50
2022-08-10T04:44:59.058Z,98399.56
2022-08-10T04:47:57.875Z,98400.75
2022-08-10T04:50:23.879Z,98397.88
2022-08-10T04:52:53.583Z,98406.31
2022-08-10T05:02:38.140Z,98406.03
2022-08-10T05:05:10.872Z,98402.66
2022-08-10T05:07:53.739Z,98402.41
2022-08-10T05:10:23.960Z,98398.41
2022-08-10T05:12:51.742Z,98399.97
2022-08-10T05:15:19.595Z,98408.19
2022-08-10T05:18:08.596Z,98406.88
2022-08-10T05:20:38.114Z,98412.34
2022-08-10T05:23:08.551Z,98405.38
2022-08-10T05:25:40.169Z,98406.94
2022-08-10T05:28:08.262Z,98410.41
2022-08-10T05:30:36.112Z,98404.13
2022-08-10T05:33:08.664Z,98411.16
2022-08-10T05:35:51.770Z,98403.88
2022-08-10T05:38:29.031Z,98414.97
2022-08-10T05:41:02.881Z,98414.13
2022-08-10T05:43:30.817Z,98411.25
2022-08-10T05:46:17.341Z,98407.16
2022-08-10T05:48:59.236Z,98408.38
2022-08-10T05:51:28.477Z,98407.19
2022-08-10T05:54:02.724Z,98414.50
2022-08-10T05:56:53.891Z,98411.97
2022-08-10T06:00:31.037Z,98413.16
2022-08-10T06:02:41.507Z,98406.84
2022-08-10T06:05:04.997Z,98412.78
2022-08-10T06:07:33.314Z,98412.78
2022-08-10T06:10:01.242Z,98416.50
2022-08-10T06:12:54.382Z,98418.66
2022-08-10T06:15:21.584Z,98416.59
2022-08-10T06:18:09.556Z,98407.91
2022-08-10T06:20:38.925Z,98414.34
2022-08-10T06:23:06.778Z,98414.81
2022-08-10T06:28:23.901Z,98415.06
2022-08-10T06:30:51.943Z,98422.56
2022-08-10T06:33:19.830Z,98411.88
2022-08-10T06:35:47.687Z,98419.63
2022-08-10T06:38:15.526Z,98421.03
2022-08-10T06:40:45.284Z,98419.63
2022-08-10T06:43:15.884Z,98422.63
2022-08-10T06:45:46.740Z,98420.56
2022-08-10T06:48:37.857Z,98415.28
2022-08-10T06:51:07.294Z,98420.31
2022-08-10T06:53:52.867Z,98422.88
2022-08-10T06:56:37.707Z,98420.53
2022-08-10T06:59:08.243Z,98430.47
2022-08-10T07:01:44.994Z,98423.97
2022-08-10T07:04:32.678Z,98428.13
2022-08-10T07:07:03.950Z,98422.91
2022-08-10T07:09:31.885Z,98428.25
2022-08-10T07:12:07.642Z,98432.25
2022-08-10T07:14:37.879Z,98425.81
2022-08-10T07:17:07.334Z,98426.19
2022-08-10T07:19:49.880Z,98427.81
2022-08-10T07:23:53.842Z,98426.75
2022-08-10T07:25:07.696Z,98424.22
2022-08-10T07:27:39.178Z,98427.38
2022-08-10T07:30:23.378Z,98425.69
2022-08-10T07:32:57.888Z,98423.00
2022-08-10T07:35:43.191Z,98425.19
2022-08-10T07:38:18.098Z,98434.13
2022-08-10T07:40:46.349Z,98432.13
2022-08-10T07:43:14.316Z,98436.47
2022-08-10T07:45:42.120Z,98430.44
2022-08-10T07:48:15.278Z,98433.94
2022-08-10T07:50:43.183Z,98431.06
2022-08-10T07:53:13.329Z,98436.53
2022-08-10T07:56:05.507Z,98437.25
2022-08-10T07:58:31.458Z,98435.72
2022-08-10T08:00:59.756Z,98445.63
2022-08-10T08:03:29.656Z,98443.66
2022-08-10T08:06:05.595Z,98443.66
2022-08-10T08:08:40.236Z,98442.59
2022-08-10T08:11:08.766Z,98438.16
2022-08-10T08:13:37.253Z,98441.59
2022-08-10T08:16:16.837Z,98440.50
2022-08-10T08:19:16.330Z,98437.78
2022-08-10T08:24:09.033Z,98445.03
2022-08-10T08:24:32.675Z,98445.09
2022-08-10T08:27:02.188Z,98437.72
2022-08-10T08:29:30.086Z,98439.38
2022-08-10T08:32:02.695Z,98437.78
2022-08-10T08:34:32.936Z,98437.41
2022-08-10T08:37:01.816Z,98440.16
2022-08-10T08:39:29.915Z,98430.13
2022-08-10T08:42:15.271Z,98434.13
2022-08-10T08:44:51.600Z,98431.38
2022-08-10T08:48:04.568Z,98428.03
2022-08-10T08:50:25.398Z,98433.09
2022-08-10T08:52:59.350Z,98431.22
2022-08-10T08:56:04.900Z,98429.56
2022-08-10T08:58:55.010Z,98428.94
2022-08-10T09:01:40.200Z,98430.63
2022-08-10T09:04:20.153Z,98419.63
2022-08-10T09:10:13.671Z,98417.34
2022-08-10T09:12:51.448Z,98419.69
2022-08-10T09:15:39.510Z,98409.16
2022-08-10T09:18:13.785Z,98405.53
2022-08-10T09:20:43.566Z,98416.09
2022-08-10T09:23:15.469Z,98413.56
2022-08-10T09:25:45.798Z,98399.44
2022-08-10T09:28:18.402Z,98399.25
2022-08-10T09:31:10.771Z,98399.06
2022-08-10T09:36:20.576Z,98399.28
2022-08-10T09:36:51.713Z,98391.84
2022-08-10T09:40:12.464Z,98391.19
2022-08-10T09:42:15.370Z,98404.13
2022-08-10T09:44:58.176Z,98386.56
2022-08-10T09:48:02.083Z,98389.31
2022-08-10T09:51:09.356Z,98386.97
2022-08-10T09:53:26.244Z,98385.53
2022-08-10T09:56:17.634Z,98382.72
2022-08-10T09:58:51.256Z,98388.22
2022-08-10T10:01:58.331Z,98389.25
2022-08-10T10:04:38.584Z,98377.47
2022-08-10T10:07:08.135Z,98376.97
2022-08-10T10:09:40.546Z,98370.44
2022-08-10T10:12:16.887Z,98371.47
2022-08-10T10:15:09.750Z,98376.41
2022-08-10T10:17:54.399Z,98355.00
2022-08-10T10:20:27.010Z,98355.38
2022-08-10T10:23:00.200Z,98358.09
2022-08-10T10:25:49.868Z,98348.13
2022-08-10T10:28:57.542Z,98349.81
2022-08-10T10:31:26.144Z,98350.19
2022-08-10T10:33:59.058Z,98354.06
2022-08-10T10:36:27.042Z,98351.47
2022-08-10T10:38:55.109Z,98354.19
2022-08-10T10:42:03.989Z,98352.66
2022-08-10T10:44:38.968Z,98347.16
2022-08-10T10:47:15.571Z,98345.78
2022-08-10T10:49:49.205Z,98346.47
2022-08-10T10:52:24.035Z,98340.28
2022-08-10T10:54:57.193Z,98335.34
2022-08-10T10:57:59.551Z,98335.78
2022-08-10T11:00:27.607Z,98329.53
2022-08-10T11:03:05.304Z,98328.72
2022-08-10T11:05:37.145Z,98316.34
2022-08-10T11:08:08.878Z,98316.13
2022-08-10T11:10:47.537Z,98314.72
2022-08-10T11:14:23.172Z,98311.31
2022-08-10T11:16:18.216Z,98314.91
2022-08-10T11:19:05.291Z,98308.19
2022-08-10T11:21:46.313Z,98307.84
2022-08-10T11:24:47.492Z,98304.66
2022-08-10T11:27:09.647Z,98306.25
2022-08-10T11:29:53.702Z,98302.22
2022-08-10T11:46:44.215Z,98289.69
2022-08-10T11:49:14.103Z,98294.19
2022-08-10T11:51:45.084Z,98295.28
2022-08-10T11:54:24.360Z,98293.34
2022-08-10T11:56:57.228Z,98279.47
2022-08-10T11:59:49.014Z,98280.94
2022-08-10T12:02:20.912Z,98276.09
2022-08-10T12:04:49.691Z,98276.09
2022-08-10T12:10:02.499Z,98272.63
2022-08-10T12:10:13.438Z,98276.97
2022-08-10T12:12:46.850Z,98261.81
2022-08-10T12:15:17.965Z,98266.16
2022-08-10T12:17:49.330Z,98264.34
2022-08-10T12:20:18.778Z,98275.69
2022-08-10T12:22:49.911Z,98269.59
2022-08-10T12:25:55.596Z,98265.41
2022-08-10T12:28:12.286Z,98255.41
2022-08-10T12:30:43.966Z,98264.63
2022-08-10T12:33:19.345Z,98264.25
2022-08-10T12:36:17.008Z,98260.75
2022-08-10T12:38:41.949Z,98255.03
2022-08-10T12:41:14.492Z,98258.09
2022-08-10T12:44:04.959Z,98247.03
2022-08-10T12:46:36.310Z,98240.66
2022-08-10T12:49:08.795Z,98226.50
2022-08-10T12:51:37.102Z,98233.94
2022-08-10T12:54:08.732Z,98236.53
2022-08-10T12:56:40.029Z,98219.50
2022-08-10T12:59:14.744Z,98217.09
2022-08-10T13:02:07.041Z,98220.88
2022-08-10T13:04:37.388Z,98215.50
2022-08-10T13:07:08.283Z,98206.25
2022-08-10T13:09:56.161Z,98205.22
2022-08-10T13:12:38.612Z,98203.00
2022-08-10T13:15:46.006Z,98194.31
2022-08-10T13:18:06.248Z,98191.59
2022-08-10T13:20:51.132Z,98192.19
2022-08-10T13:23:21.962Z,98195.78
2022-08-10T13:25:49.800Z,98195.94
2022-08-10T13:28:37.506Z,98193.38
2022-08-10T13:31:08.821Z,98196.63
2022-08-10T13:34:35.839Z,98189.69
2022-08-10T13:36:40.464Z,98189.44
2022-08-10T13:39:10.849Z,98182.97
2022-08-10T13:41:42.434Z,98193.53
2022-08-10T13:44:11.157Z,98182.84
2022-08-10T13:46:40.560Z,98196.91
2022-08-10T13:49:08.508Z,98179.03
2022-08-10T13:51:54.400Z,98175.06
2022-08-10T13:54:29.072Z,98180.47
2022-08-10T13:56:57.092Z,98175.06
2022-08-10T14:00:36.234Z,98197.16
2022-08-10T14:02:15.749Z,98173.25
2022-08-10T14:04:45.634Z,98176.84
2022-08-10T14:07:13.707Z,98167.00
2022-08-10T14:09:43.694Z,98171.09
2022-08-10T14:12:11.812Z,98161.94
2022-08-10T14:14:40.028Z,98156.63
2022-08-10T14:17:08.176Z,98163.91
2022-08-10T14:19:43.332Z,98156.53
2022-08-10T14:22:11.790Z,98151.16
2022-08-10T14:24:39.837Z,98156.19
2022-08-10T14:27:09.850Z,98157.31
2022-08-10T14:29:40.906Z,98153.97
2022-08-10T14:32:09.406Z,98154.78
2022-08-10T14:36:16.406Z,98149.72
2022-08-10T14:37:37.791Z,98146.88
2022-08-10T14:40:08.232Z,98150.97
2022-08-10T14:42:45.867Z,98144.84
2022-08-10T14:45:20.816Z,98143.72
2022-08-10T14:47:53.574Z,98134.63
2022-08-10T14:50:31.831Z,98140.28
2022-08-10T14:53:01.166Z,98136.63
2022-08-10T14:55:29.294Z,98135.31
2022-08-10T14:58:20.193Z,98130.72
2022-08-10T15:00:47.130Z,98130.91
2022-08-10T15:03:58.536Z,98129.31
2022-08-10T15:06:17.125Z,98135.13
2022-08-10T15:08:49.458Z,98121.41
2022-08-10T15:12:12.229Z,98118.50
2022-08-10T15:14:15.164Z,98123.09
2022-08-10T15:16:59.560Z,98116.63
2022-08-10T15:20:03.536Z,98114.31
2022-08-10T15:22:36.639Z,98115.75
2022-08-10T15:25:19.471Z,98114.19
2022-08-10T15:27:54.949Z,98121.88
2022-08-10T15:30:29.782Z,98122.47
2022-08-10T15:33:21.647Z,98112.88
2022-08-10T15:36:23.458Z,98118.25
2022-08-10T15:38:56.274Z,98115.59
2022-08-10T15:41:59.519Z,98112.50
2022-08-10T15:44:25.732Z,98110.44
2022-08-10T15:47:02.610Z,98107.44
2022-08-10T15:49:34.552Z,98110.44
2022-08-10T15:52:04.501Z,98101.56
2022-08-10T15:54:40.480Z,98111.16
2022-08-10T15:57:09.305Z,98102.88
2022-08-10T15:59:42.430Z,98093.03
2022-08-10T16:02:17.213Z,98096.16
2022-08-10T16:04:49.872Z,98102.28
2022-08-10T16:07:19.685Z,98105.66
2022-08-10T16:10:24.687Z,98100.84
2022-08-10T16:12:45.096Z,98102.75
2022-08-10T16:15:31.221Z,98107.66
2022-08-10T16:18:03.334Z,98089.78
2022-08-10T16:20:33.280Z,98093.38
2022-08-10T16:23:21.529Z,98096.88
2022-08-10T16:25:58.368Z,98095.91
2022-08-10T16:28:31.709Z,98088.59
2022-08-10T16:31:00.085Z,98091.13
2022-08-10T16:33:53.618Z,98080.91
2022-08-10T16:36:19.351Z,98083.84
2022-08-10T16:38:49.297Z,98083.31
2022-08-10T16:42:02.111Z,98076.72
2022-08-10T16:44:06.017Z,98088.44
2022-08-10T16:46:33.985Z,98086.16
2022-08-10T16:49:03.266Z,98090.59
2022-08-10T16:51:31.352Z,98086.22
2022-08-10T16:54:00.241Z,98083.41
2022-08-10T16:56:31.143Z,98083.78
2022-08-10T16:58:58.976Z,98083.38
2022-08-10T17:01:28.084Z,98085.59
2022-08-10T17:04:06.734Z,98086.50
2022-08-10T17:06:41.964Z,98074.88
2022-08-10T17:09:15.888Z,98081.03
2022-08-10T17:11:46.084Z,98086.94
2022-08-10T17:14:13.889Z,98086.63
2022-08-10T17:16:42.838Z,98075.59
2022-08-10T17:19:13.144Z,98077.88
2022-08-10T17:21:51.135Z,98082.63
2022-08-10T17:24:21.352Z,98073.94
2022-08-10T17:26:49.137Z,98076.91
2022-08-10T17:29:57.941Z,98078.31
2022-08-10T17:32:07.496Z,98077.59
2022-08-10T17:34:59.684Z,98088.19
2022-08-10T17:37:33.753Z,98078.44
2022-08-10T17:40:06.956Z,98082.53
2022-08-10T17:42:35.010Z,98090.44
2022-08-10T17:45:02.968Z,98082.13
2022-08-10T17:47:30.802Z,98083.81
2022-08-10T17:49:59.109Z,98068.38
2022-08-10T17:52:29.341Z,98071.69
2022-08-10T17:55:02.094Z,98076.44
2022-08-10T17:57:29.972Z,98079.06
2022-08-10T18:00:01.430Z,98084.78
2022-08-10T18:02:29.290Z,98081.00
2022-08-10T18:04:58.550Z,98079.16
2022-08-10T18:07:32.572Z,98081.00
2022-08-10T18:10:02.241Z,98086.81
2022-08-10T18:12:38.683Z,98087.75
2022-08-10T18:15:13.214Z,98086.94
2022-08-10T18:17:45.968Z,98086.09
2022-08-10T18:20:13.837Z,98086.53
2022-08-10T18:22:44.314Z,98092.06
2022-08-10T18:25:18.167Z,98105.56
2022-08-10T18:27:46.588Z,98106.00
2022-08-10T18:30:36.331Z,98110.84
2022-08-10T18:33:04.892Z,98108.16
2022-08-10T18:35:34.586Z,98103.75
2022-08-10T18:38:03.134Z,98109.25
2022-08-10T18:40:36.343Z,98111.78
2022-08-10T18:43:09.948Z,98103.13
2022-08-10T18:45:55.311Z,98107.59
2022-08-10T18:48:23.178Z,98116.03
2022-08-10T18:50:52.096Z,98117.72
2022-08-10T18:53:23.878Z,98119.19
2022-08-10T18:56:08.476Z,98120.03
2022-08-10T18:59:02.958Z,98121.94
2022-08-10T19:01:43.899Z,98117.69
2022-08-10T19:04:19.553Z,98118.97
2022-08-10T19:07:00.005Z,98118.31
2022-08-10T19:09:47.753Z,98119.59
2022-08-10T19:12:30.090Z,98124.41
2022-08-10T19:15:06.623Z,98121.03
2022-08-10T19:18:01.127Z,98124.81
2022-08-10T19:20:29.700Z,98125.84
2022-08-10T19:23:05.639Z,98123.69
2022-08-10T19:26:43.300Z,98126.88
2022-08-10T19:28:34.360Z,98129.75
2022-08-10T19:31:04.328Z,98132.28
2022-08-10T19:33:36.370Z,98132.66
2022-08-10T19:36:09.917Z,98137.03
2022-08-10T19:38:50.247Z,98131.72
2022-08-10T19:41:21.643Z,98132.72
2022-08-10T19:44:04.476Z,98138.84
2022-08-10T19:46:37.220Z,98141.28
2022-08-10T19:49:14.125Z,98136.16
2022-08-10T19:51:49.001Z,98138.50
2022-08-10T19:54:18.816Z,98134.09
2022-08-10T19:56:50.640Z,98131.53
2022-08-10T20:00:19.288Z,98127.09
2022-08-10T20:02:21.456Z,98127.88
2022-08-10T20:04:56.973Z,98129.94
2022-08-10T20:07:30.273Z,98132.91
2022-08-10T20:10:05.562Z,98135.41
2022-08-10T20:12:38.002Z,98137.97
2022-08-10T20:15:08.639Z,98133.28
2022-08-10T20:17:51.534Z,98138.91
2022-08-10T20:20:29.004Z,98138.16
2022-08-10T20:23:03.160Z,98141.13
2022-08-10T20:25:31.739Z,98145.88
2022-08-10T20:28:05.116Z,98140.41
2022-08-10T20:30:35.646Z,98149.63
2022-08-10T20:33:08.658Z,98142.16
2022-08-10T20:35:45.880Z,98138.19
2022-08-10T20:38:15.953Z,98143.38
2022-08-10T20:40:46.786Z,98134.34
2022-08-10T20:43:20.422Z,98137.78
2022-08-10T20:46:07.871Z,98134.16
2022-08-10T20:48:39.149Z,98136.38
2022-08-10T20:51:09.390Z,98139.56
2022-08-10T20:53:41.489Z,98128.38
2022-08-10T20:56:16.181Z,98140.06
2022-08-10T20:59:09.463Z,98145.44
2022-08-10T21:02:06.512Z,98143.78
2022-08-10T21:04:48.788Z,98143.97
2022-08-10T21:07:59.953Z,98143.72
2022-08-10T21:10:29.482Z,98148.28
2022-08-10T21:13:02.894Z,98146.84
2022-08-10T21:15:43.612Z,98141.13
2022-08-10T21:18:22.873Z,98139.75
2022-08-10T21:20:59.499Z,98141.16
2022-08-10T21:23:30.569Z,98139.09
2022-08-10T21:26:07.600Z,98144.66
2022-08-10T21:28:57.180Z,98129.81
2022-08-10T21:31:44.599Z,98133.72
2022-08-10T21:34:19.925Z,98142.09
2022-08-10T21:37:00.133Z,98138.75
2022-08-10T21:39:42.360Z,98137.41
2022-08-10T21:42:34.832Z,98137.09
2022-08-10T21:45:58.878Z,98137.38
2022-08-10T21:48:37.403Z,98133.13
2022-08-10T21:52:01.052Z,98140.88
2022-08-10T21:54:36.040Z,98135.78
2022-08-10T21:57:26.373Z,98134.56
2022-08-10T22:00:16.761Z,98130.63
2022-08-10T22:03:02.328Z,98137.59
2022-08-10T22:05:49.023Z,98130.34
2022-08-10T22:08:41.282Z,98132.22
2022-08-10T22:11:37.205Z,98131.75
2022-08-10T22:14:23.585Z,98129.59
2022-08-10T22:17:59.339Z,98134.31
2022-08-10T22:20:21.339Z,98135.53
2022-08-10T22:23:19.180Z,98131.34
2022-08-10T22:26:12.151Z,98128.44
2022-08-10T22:29:00.677Z,98128.25
2022-08-10T22:31:51.739Z,98135.50
2022-08-10T22:35:11.132Z,98124.97
2022-08-10T22:38:07.971Z,98123.19
2022-08-10T22:40:53.625Z,98119.97
2022-08-10T22:43:42.868Z,98122.22
2022-08-10T22:46:32.780Z,98129.25
2022-08-10T22:48:59.598Z,98122.59
2022-08-10T22:51:33.654Z,98121.75
2022-08-10T22:54:30.714Z,98130.47
2022-08-10T22:57:17.292Z,98117.41
2022-08-10T22:59:46.571Z,98114.78
2022-08-10T23:02:17.578Z,98118.44
2022-08-10T23:04:48.581Z,98121.44
2022-08-10T23:07:21.788Z,98126.88
2022-08-10T23:09:55.832Z,98124.84
2022-08-10T23:12:25.769Z,98121.78
2022-08-10T23:15:12.584Z,98121.19
2022-08-10T23:18:01.442Z,98118.78
2022-08-10T23:20:30.154Z,98121.19
2022-08-10T23:23:02.761Z,98117.84
2022-08-10T23:25:34.187Z,98115.84
2022-08-10T23:28:12.317Z,98114.38
2022-08-10T23:30:46.597Z,98108.63
2022-08-10T23:33:37.597Z,98116.06
2022-08-10T23:36:32.545Z,98115.19
2022-08-10T23:39:24.108Z,98112.13
2022-08-10T23:41:42.505Z,98107.53
2022-08-10T23:44:14.844Z,98116.50
2022-08-10T23:46:50.515Z,98113.88
2022-08-10T23:49:18.505Z,98122.19
2022-08-10T23:51:55.379Z,98120.31
2022-08-10T23:54:23.961Z,98115.50
2022-08-10T23:56:53.557Z,98119.56
2022-08-10T23:59:22.413Z,98123.13
